createdAt,value
2022-10-23T00:02:35.824Z,96.80
2022-10-23T00:06:51.536Z,96.90
2022-10-23T00:11:08.749Z,97.00
2022-10-23T00:15:24.187Z,97.00
2022-10-23T00:19:38.099Z,97.10
2022-10-23T00:23:53.300Z,96.90
2022-10-23T00:28:07.219Z,96.80
2022-10-23T00:32:21.382Z,96.90
2022-10-23T00:36:35.751Z,96.90
2022-10-23T00:40:51.567Z,97.00
2022-10-23T00:45:20.543Z,97.00
2022-10-23T00:49:34.635Z,97.00
2022-10-23T00:54:01.287Z,96.90
2022-10-23T00:58:27.957Z,96.90
2022-10-23T01:02:42.030Z,96.90
2022-10-23T01:07:04.343Z,97.00
2022-10-23T01:11:23.301Z,96.90
2022-10-23T01:15:45.579Z,97.10
2022-10-23T01:20:16.613Z,96.70
2022-10-23T01:24:40.803Z,96.60
2022-10-23T01:29:02.569Z,96.40
2022-10-23T01:33:24.075Z,96.20
2022-10-23T01:37:43.227Z,96.20
2022-10-23T01:42:04.710Z,96.20
2022-10-23T01:46:20.830Z,96.20
2022-10-23T01:50:35.852Z,96.10
2022-10-23T01:54:52.669Z,96.20
2022-10-23T01:59:10.671Z,96.30
2022-10-23T02:03:30.828Z,96.50
2022-10-23T02:07:45.465Z,96.50
2022-10-23T02:12:03.980Z,96.50
2022-10-23T02:16:24.294Z,96.50
2022-10-23T02:25:08.495Z,96.60
2022-10-23T02:29:28.365Z,96.50
2022-10-23T02:33:46.510Z,96.60
2022-10-23T02:38:02.715Z,96.50
2022-10-23T02:42:23.543Z,96.50
2022-10-23T02:46:47.328Z,96.60
2022-10-23T02:51:07.254Z,96.80
2022-10-23T02:55:35.186Z,97.00
2022-10-23T02:59:57.040Z,97.30
2022-10-23T03:04:12.580Z,97.20
2022-10-23T03:08:26.629Z,97.10
2022-10-23T03:12:42.401Z,96.80
2022-10-23T03:16:56.488Z,96.80
2022-10-23T03:21:12.256Z,96.70
2022-10-23T03:25:26.009Z,96.60
2022-10-23T03:29:41.385Z,96.30
2022-10-23T03:33:55.117Z,96.20
2022-10-23T03:38:09.061Z,96.30
2022-10-23T03:42:22.749Z,96.70
2022-10-23T03:46:37.826Z,97.20
2022-10-23T03:50:51.728Z,97.50
2022-10-23T03:55:06.495Z,97.70
2022-10-23T03:59:20.292Z,98.20
2022-10-23T04:03:36.405Z,98.50
2022-10-23T04:07:50.399Z,98.60
2022-10-23T04:12:04.236Z,98.80
2022-10-23T04:16:18.466Z,98.90
2022-10-23T04:20:33.978Z,99.20
2022-10-23T04:24:49.411Z,99.30
2022-10-23T04:29:05.701Z,99.30
2022-10-23T04:33:19.403Z,99.30
2022-10-23T04:37:37.475Z,99.30
2022-10-23T04:41:52.911Z,99.30
2022-10-23T04:46:07.800Z,99.30
2022-10-23T04:50:21.989Z,99.40
2022-10-23T04:54:55.494Z,99.50
2022-10-23T04:59:09.404Z,99.50
2022-10-23T05:03:26.351Z,99.60
2022-10-23T05:07:40.909Z,99.60
2022-10-23T05:12:10.105Z,99.60
2022-10-23T05:16:33.524Z,99.90
2022-10-23T05:20:48.694Z,99.50
2022-10-23T05:25:02.703Z,99.60
2022-10-23T05:29:23.312Z,99.60
2022-10-23T05:33:41.020Z,99.60
2022-10-23T05:37:57.191Z,99.60
2022-10-23T05:42:12.472Z,99.70
2022-10-23T05:46:28.991Z,99.70
2022-10-23T05:51:04.489Z,99.60
2022-10-23T05:55:28.430Z,99.50
2022-10-23T06:00:06.287Z,99.50
2022-10-23T06:04:30.261Z,99.50
2022-10-23T06:09:04.150Z,99.50
2022-10-23T06:13:22.810Z,99.50
2022-10-23T06:17:36.508Z,99.50
2022-10-23T06:21:52.128Z,99.50
2022-10-23T06:26:09.652Z,99.40
2022-10-23T06:30:40.709Z,99.30
2022-10-23T06:34:54.597Z,99.10
2022-10-23T06:39:10.379Z,99.00
2022-10-23T06:43:53.400Z,98.80
2022-10-23T06:48:25.828Z,98.40
2022-10-23T06:52:47.850Z,98.00
2022-10-23T06:57:05.704Z,97.50
2022-10-23T07:01:30.316Z,97.20
2022-10-23T07:05:45.105Z,96.90
2022-10-23T07:09:59.711Z,96.60
2022-10-23T07:14:36.314Z,96.30
2022-10-23T07:18:58.691Z,95.60
2022-10-23T07:23:16.277Z,95.20
2022-10-23T07:27:31.822Z,93.60
2022-10-23T07:31:50.412Z,93.00
2022-10-23T07:36:21.992Z,91.10
2022-10-23T07:40:36.111Z,88.70
2022-10-23T07:44:50.766Z,86.90
2022-10-23T07:49:05.969Z,84.30
2022-10-23T07:53:21.740Z,81.00
2022-10-23T07:57:40.149Z,79.90
2022-10-23T08:02:15.487Z,79.70
2022-10-23T08:06:31.581Z,79.70
2022-10-23T08:10:47.604Z,80.00
2022-10-23T08:15:07.701Z,80.90
2022-10-23T08:19:37.122Z,81.40
2022-10-23T08:23:55.087Z,81.80
2022-10-23T08:28:09.448Z,82.10
2022-10-23T08:32:31.359Z,81.30
2022-10-23T08:36:46.684Z,81.80
2022-10-23T08:41:02.831Z,81.40
2022-10-23T08:45:43.569Z,81.70
2022-10-23T08:50:15.737Z,79.70
2022-10-23T08:54:35.123Z,79.00
2022-10-23T08:58:54.230Z,78.70
2022-10-23T09:03:07.944Z,79.90
2022-10-23T09:07:29.580Z,79.70
2022-10-23T09:11:50.240Z,78.50
2022-10-23T09:16:15.591Z,75.20
2022-10-23T09:20:34.213Z,71.50
2022-10-23T09:24:52.976Z,68.50
2022-10-23T09:29:22.133Z,64.80
2022-10-23T09:33:37.687Z,62.90
2022-10-23T09:37:53.274Z,61.50
2022-10-23T09:42:22.942Z,61.00
2022-10-23T09:46:41.138Z,61.00
2022-10-23T09:50:58.959Z,62.30
2022-10-23T09:55:21.465Z,61.30
2022-10-23T09:59:35.915Z,61.00
2022-10-23T10:03:50.631Z,61.80
2022-10-23T10:08:16.474Z,61.90
2022-10-23T10:12:44.056Z,59.50
2022-10-23T10:17:06.699Z,58.30
2022-10-23T10:21:26.143Z,58.10
2022-10-23T10:25:52.032Z,58.50
2022-10-23T10:30:13.839Z,58.90
2022-10-23T10:34:33.852Z,60.00
2022-10-23T10:38:51.863Z,60.90
2022-10-23T10:43:21.435Z,62.30
2022-10-23T10:47:47.549Z,62.00
2022-10-23T10:52:14.360Z,62.80
2022-10-23T10:56:31.323Z,58.60
2022-10-23T11:00:50.899Z,57.00
2022-10-23T11:05:14.921Z,57.40
2022-10-23T11:09:31.138Z,57.10
2022-10-23T11:13:46.669Z,57.80
2022-10-23T11:18:10.856Z,58.30
2022-10-23T11:22:34.528Z,58.60
2022-10-23T11:27:08.314Z,59.30
2022-10-23T11:31:32.151Z,59.50
2022-10-23T11:35:58.428Z,58.80
2022-10-23T11:40:23.576Z,56.70
2022-10-23T11:44:44.093Z,56.00
2022-10-23T11:49:02.532Z,55.80
2022-10-23T11:53:28.851Z,55.10
2022-10-23T11:57:42.716Z,56.00
2022-10-23T12:01:59.427Z,56.10
2022-10-23T12:06:22.896Z,56.40
2022-10-23T12:10:46.913Z,57.00
2022-10-23T12:15:20.572Z,58.30
2022-10-23T12:19:48.754Z,58.70
2022-10-23T12:24:36.496Z,60.20
2022-10-23T12:29:00.542Z,60.30
2022-10-23T12:33:26.126Z,60.20
2022-10-23T12:37:57.241Z,60.20
2022-10-23T12:42:19.771Z,59.70
2022-10-23T12:46:37.570Z,60.20
2022-10-23T12:50:54.918Z,60.30
2022-10-23T12:55:14.707Z,60.90
2022-10-23T12:59:34.398Z,60.90
2022-10-23T13:03:50.258Z,60.40
2022-10-23T13:08:04.777Z,60.10
2022-10-23T13:12:33.769Z,61.00
2022-10-23T13:17:00.488Z,60.90
2022-10-23T13:21:21.095Z,61.20
2022-10-23T13:25:36.453Z,61.60
2022-10-23T13:29:50.151Z,61.20
2022-10-23T13:34:24.702Z,61.80
2022-10-23T13:38:43.024Z,62.20
2022-10-23T13:42:58.898Z,62.80
2022-10-23T13:47:17.040Z,62.80
2022-10-23T13:51:34.544Z,62.70
2022-10-23T13:55:56.368Z,62.90
2022-10-23T14:00:13.318Z,62.90
2022-10-23T14:04:26.984Z,63.10
2022-10-23T14:08:40.784Z,63.40
2022-10-23T14:13:12.737Z,63.80
2022-10-23T14:17:35.187Z,64.20
2022-10-23T14:21:50.035Z,64.60
2022-10-23T14:26:10.763Z,65.10
2022-10-23T14:30:35.276Z,65.40
2022-10-23T14:34:55.754Z,65.70
2022-10-23T14:39:12.528Z,65.90
2022-10-23T14:43:26.993Z,66.40
2022-10-23T14:47:56.104Z,66.80
2022-10-23T14:52:16.546Z,67.20
2022-10-23T14:56:53.276Z,67.30
2022-10-23T15:01:10.695Z,67.40
2022-10-23T15:05:25.982Z,67.70
2022-10-23T15:09:45.480Z,68.00
2022-10-23T15:14:02.265Z,68.30
2022-10-23T15:18:15.899Z,68.70
2022-10-23T15:22:33.661Z,68.80
2022-10-23T15:26:51.693Z,69.10
2022-10-23T15:31:05.817Z,69.40
2022-10-23T15:35:19.731Z,69.80
2022-10-23T15:39:38.086Z,70.00
2022-10-23T15:43:52.031Z,70.40
2022-10-23T15:48:18.781Z,70.60
2022-10-23T15:52:47.950Z,70.70
2022-10-23T15:57:05.690Z,70.90
2022-10-23T16:01:24.856Z,70.80
2022-10-23T16:05:38.814Z,70.60
2022-10-23T16:09:52.755Z,70.30
2022-10-23T16:14:15.921Z,69.50
2022-10-23T16:18:32.028Z,69.90
2022-10-23T16:22:52.399Z,68.80
2022-10-23T16:27:06.433Z,68.60
2022-10-23T16:31:25.172Z,68.60
2022-10-23T16:35:48.751Z,68.80
2022-10-23T16:40:10.658Z,68.80
2022-10-23T16:44:45.609Z,68.90
2022-10-23T16:49:04.184Z,68.90
2022-10-23T16:53:17.850Z,69.70
2022-10-23T16:57:40.389Z,69.00
2022-10-23T17:01:54.383Z,69.20
2022-10-23T17:06:21.925Z,69.40
2022-10-23T17:10:36.876Z,69.60
2022-10-23T17:14:53.288Z,69.80
2022-10-23T17:19:20.842Z,69.90
2022-10-23T17:23:42.276Z,70.10
2022-10-23T17:27:57.484Z,70.20
2022-10-23T17:32:14.442Z,70.50
2022-10-23T17:36:39.744Z,70.50
2022-10-23T17:41:00.457Z,70.70
2022-10-23T17:45:20.361Z,71.00
2022-10-23T17:49:38.765Z,71.20
2022-10-23T17:54:11.268Z,71.50
2022-10-23T17:58:44.044Z,71.70
2022-10-23T18:03:13.685Z,72.00
2022-10-23T18:07:35.805Z,72.10
2022-10-23T18:12:00.760Z,72.30
2022-10-23T18:16:24.756Z,72.30
2022-10-23T18:20:42.728Z,72.50
2022-10-23T18:24:57.270Z,72.70
2022-10-23T18:29:15.566Z,72.90
2022-10-23T18:33:47.120Z,72.90
2022-10-23T18:38:12.877Z,72.80
2022-10-23T18:42:26.796Z,72.90
2022-10-23T18:46:43.506Z,73.00
2022-10-23T18:51:03.163Z,73.00
2022-10-23T18:55:26.608Z,72.80
2022-10-23T18:59:51.439Z,72.40
2022-10-23T19:04:10.444Z,72.10
2022-10-23T19:08:32.263Z,71.60
2022-10-23T19:12:46.235Z,71.30
2022-10-23T19:17:10.733Z,71.10
2022-10-23T19:21:31.717Z,70.90
2022-10-23T19:25:52.712Z,70.40
2022-10-23T19:30:14.416Z,70.10
2022-10-23T19:34:32.506Z,69.90
2022-10-23T19:39:18.648Z,69.70
2022-10-23T19:43:45.535Z,69.50
2022-10-23T19:47:59.549Z,69.70
2022-10-23T19:52:16.618Z,69.70
2022-10-23T19:56:32.969Z,69.90
2022-10-23T20:00:51.005Z,70.10
2022-10-23T20:05:06.992Z,70.10
2022-10-23T20:09:29.668Z,70.10
2022-10-23T20:13:45.130Z,70.00
2022-10-23T20:18:01.476Z,69.90
2022-10-23T20:22:15.355Z,70.30
2022-10-23T20:26:55.357Z,69.40
2022-10-23T20:31:18.701Z,69.00
2022-10-23T20:40:17.410Z,69.70
2022-10-23T20:44:31.290Z,69.90
2022-10-23T20:48:46.158Z,70.30
2022-10-23T20:53:01.230Z,70.90
2022-10-23T20:57:19.255Z,72.00
2022-10-23T21:01:35.520Z,73.10
2022-10-23T21:05:55.170Z,74.30
2022-10-23T21:10:12.967Z,75.40
2022-10-23T21:14:27.248Z,77.20
2022-10-23T21:18:46.670Z,79.00
2022-10-23T21:23:10.682Z,81.30
2022-10-23T21:27:34.244Z,83.40
2022-10-23T21:31:57.909Z,85.40
2022-10-23T21:36:19.831Z,87.30
2022-10-23T21:40:33.570Z,89.40
2022-10-23T21:44:51.868Z,90.00
2022-10-23T21:49:31.930Z,90.70
2022-10-23T21:53:54.568Z,91.40
2022-10-23T21:58:11.510Z,91.70
2022-10-23T22:02:35.977Z,92.10
2022-10-23T22:06:54.423Z,92.30
2022-10-23T22:11:12.616Z,92.50
2022-10-23T22:15:26.523Z,92.60
2022-10-23T22:19:58.435Z,93.00
2022-10-23T22:24:17.528Z,93.10
2022-10-23T22:28:39.144Z,92.80
2022-10-23T22:32:52.926Z,93.20
2022-10-23T22:37:08.351Z,93.80
2022-10-23T22:41:22.556Z,94.30
2022-10-23T22:45:36.372Z,94.70
2022-10-23T22:49:50.070Z,94.70
2022-10-23T22:54:05.646Z,94.80
2022-10-23T22:58:19.398Z,94.80
2022-10-23T23:02:33.154Z,94.60
2022-10-23T23:06:47.307Z,94.70
2022-10-23T23:11:02.780Z,94.50
2022-10-23T23:15:16.645Z,94.40
2022-10-23T23:19:30.380Z,94.60
2022-10-23T23:23:44.093Z,94.80
2022-10-23T23:27:59.750Z,94.90
2022-10-23T23:32:13.547Z,95.10
2022-10-23T23:36:28.865Z,95.20
2022-10-23T23:40:50.835Z,95.30
2022-10-23T23:45:14.410Z,95.30
2022-10-23T23:49:28.517Z,95.30
2022-10-23T23:53:42.273Z,95.20
2022-10-23T23:57:55.986Z,95.40
